Laguepe — 9HAI9 — position and weather

sailwx.info

Track history (hours):
 
Tides and Currents Weather Stations Pressure Air Temp Water Temp Dewpoint Dewpoint Depression Visibility Wind Speed Wind Dir Waves Ship Positions

Laguepe

Last reported at 2014-Oct-31 10:22 UTC. Time now 2014-Oct-31 10:43 UTC.
Position N 43°02' E 004°24'.

Length 81 m; draft 3.2 m.

Type: Cargo ship. MMSI: 256681000.

Date/timePositionNaut miles runAvg speedWind from/ knotsBaromVisibWave heightAir tempDewpointWater temp
2014-Oct-31 10:22N 43°02' E 004°24'10 8.5
2014-Oct-31 09:13N 42°53' E 004°17'8 8.1
2014-Oct-31 08:17N 42°47' E 004°11'8 8.2
2014-Oct-31 07:22N 42°41' E 004°05'63 8.1
2014-Oct-30 23:33N 41°49' E 003°17'10 8.4
2014-Oct-30 22:24N 41°44' E 003°06'16 8.1
2014-Oct-30 20:27N 41°35' E 002°48'8 8.6
2014-Oct-30 19:30N 41°30' E 002°39'10 8.4
2014-Oct-30 18:21N 41°25' E 002°29'8 4.4
2014-Oct-30 16:33N 41°18' E 002°23'3 2.3
2014-Oct-30 15:24N 41°17' E 002°19'0 0.3
2014-Oct-30 14:29N 41°17' E 002°19'10 0.5
2014-Oct-29 17:14N 41°25' E 002°27'5 7.7
2014-Oct-29 16:34N 41°28' E 002°33'8 7.4
2014-Oct-29 15:31N 41°32' E 002°42'8 7.7
2014-Oct-29 14:26N 41°37' E 002°51'8 8.6
2014-Oct-29 13:28N 41°41' E 003°01'7 7.8
2014-Oct-29 12:33N 41°45' E 003°09'8 7.6
2014-Oct-29 11:31N 41°49' E 003°17'11 8.1
2014-Oct-29 10:11N 41°57' E 003°28'6 9.4
2014-Oct-29 09:31N 42°02' E 003°33'9 9.3
2014-Oct-29 08:31N 42°08' E 003°42'9 8.7
2014-Oct-29 07:28N 42°15' E 003°50'16 8.3
2014-Oct-29 05:33N 42°27' E 004°04'55 8.6
2014-Oct-28 23:07N 43°08' E 004°56'5 8.5
2014-Oct-28 22:33N 43°11' E 005°00'7 7.6
2014-Oct-28 21:33N 43°19' E 004°59'7 6.6
2014-Oct-28 20:33N 43°23' E 004°53'3 3.0
2014-Oct-28 19:33N 43°23' E 004°49'0 0.1
2014-Oct-28 18:30N 43°23' E 004°48'0 0.0
2014-Oct-28 17:31N 43°23' E 004°48'  
2014-Oct-25 08:26N 43°23' E 004°49'1 0.8
2014-Oct-25 07:33N 43°23' E 004°49'5 4.9
2014-Oct-25 06:33N 43°23' E 004°56'4 4.2
2014-Oct-25 05:33N 43°19' E 004°57'7 7.1
2014-Oct-25 04:33N 43°18' E 004°47'47 6.7
2014-Oct-24 21:33N 43°04' E 003°46'9 7.8
2014-Oct-24 20:23N 42°56' E 003°42'8 7.4
2014-Oct-24 19:22N 42°48' E 003°39'6 7.1
2014-Oct-24 18:31N 42°43' E 003°36'7 7.1
2014-Oct-24 17:28N 42°36' E 003°33'8 7.7
2014-Oct-24 16:29N 42°28' E 003°29'7 7.4
2014-Oct-24 15:30N 42°21' E 003°26'9 7.3
2014-Oct-24 14:19N 42°13' E 003°23'7 7.3
2014-Oct-24 13:21N 42°06' E 003°22'6 7.4
2014-Oct-24 12:33N 42°00' E 003°20'9 7.5
2014-Oct-24 11:18N 41°51' E 003°18'5 6.6
2014-Oct-24 10:29N 41°47' E 003°13'8 7.2
2014-Oct-24 09:20N 41°43' E 003°04'9 7.8
2014-Oct-24 08:09N 41°37' E 002°54'22 0.5
2014-Oct-22 15:27N 41°25' E 002°29'14 7.1
2014-Oct-22 13:27N 41°33' E 002°44'6 6.1
2014-Oct-22 12:33N 41°37' E 002°50'9 6.8
2014-Oct-22 11:10N 41°41' E 003°01'5 7.0
2014-Oct-22 10:30N 41°44' E 003°06'7 7.8
2014-Oct-22 09:33N 41°48' E 003°15'8 7.2
2014-Oct-22 08:25N 41°55' E 003°19'6 7.3
2014-Oct-22 07:33N 42°01' E 003°21'9 8.5
2014-Oct-22 06:26N 42°11' E 003°22'11 8.2
2014-Oct-22 05:08N 42°21' E 003°21'46 6.9
2014-Oct-21 22:25N 43°08' E 003°27'10 7.7
2014-Oct-21 21:04N 43°14' E 003°39'7 8.0
2014-Oct-21 20:11N 43°18' E 003°46'7 8.0
2014-Oct-21 19:19N 43°23' E 003°54'7 7.2
2014-Oct-21 18:23N 43°22' E 004°03'6 7.3
2014-Oct-21 17:34N 43°21' E 004°11'9 6.3
2014-Oct-21 16:07N 43°19' E 004°23'6 6.2
2014-Oct-21 15:11N 43°18' E 004°31'5 6.0
2014-Oct-21 14:26N 43°17' E 004°37'5 6.3
2014-Oct-21 13:33N 43°18' E 004°45'6 6.3
2014-Oct-21 12:33N 43°18' E 004°53'5 5.2
2014-Oct-21 11:33N 43°24' E 004°54'4 4.2
2014-Oct-21 10:33N 43°23' E 004°49'  
Track history (hours):
 
Tides and Currents Weather Stations Pressure Air Temp Water Temp Dewpoint Dewpoint Depression Visibility Wind Speed Wind Dir Waves Ship Positions

Laguepe

Last reported at 2014-Oct-31 10:22 UTC. Time now 2014-Oct-31 10:43 UTC.
Position N 43°02' E 004°24'.

Length 81 m; draft 3.2 m.

Type: Cargo ship. MMSI: 256681000.

Date/timePositionNaut miles runAvg speedWind from/ knotsBaromVisibWave heightAir tempDewpointWater temp
2014-Oct-31 10:22N 43°02' E 004°24'10 8.5
2014-Oct-31 09:13N 42°53' E 004°17'8 8.1
2014-Oct-31 08:17N 42°47' E 004°11'8 8.2
2014-Oct-31 07:22N 42°41' E 004°05'63 8.1
2014-Oct-30 23:33N 41°49' E 003°17'10 8.4
2014-Oct-30 22:24N 41°44' E 003°06'16 8.1
2014-Oct-30 20:27N 41°35' E 002°48'8 8.6
2014-Oct-30 19:30N 41°30' E 002°39'10 8.4
2014-Oct-30 18:21N 41°25' E 002°29'8 4.4
2014-Oct-30 16:33N 41°18' E 002°23'3 2.3
2014-Oct-30 15:24N 41°17' E 002°19'0 0.3
2014-Oct-30 14:29N 41°17' E 002°19'10 0.5
2014-Oct-29 17:14N 41°25' E 002°27'5 7.7
2014-Oct-29 16:34N 41°28' E 002°33'8 7.4
2014-Oct-29 15:31N 41°32' E 002°42'8 7.7
2014-Oct-29 14:26N 41°37' E 002°51'8 8.6
2014-Oct-29 13:28N 41°41' E 003°01'7 7.8
2014-Oct-29 12:33N 41°45' E 003°09'8 7.6
2014-Oct-29 11:31N 41°49' E 003°17'11 8.1
2014-Oct-29 10:11N 41°57' E 003°28'6 9.4
2014-Oct-29 09:31N 42°02' E 003°33'9 9.3
2014-Oct-29 08:31N 42°08' E 003°42'9 8.7
2014-Oct-29 07:28N 42°15' E 003°50'16 8.3
2014-Oct-29 05:33N 42°27' E 004°04'55 8.6
2014-Oct-28 23:07N 43°08' E 004°56'5 8.5
2014-Oct-28 22:33N 43°11' E 005°00'7 7.6
2014-Oct-28 21:33N 43°19' E 004°59'7 6.6
2014-Oct-28 20:33N 43°23' E 004°53'3 3.0
2014-Oct-28 19:33N 43°23' E 004°49'0 0.1
2014-Oct-28 18:30N 43°23' E 004°48'0 0.0
2014-Oct-28 17:31N 43°23' E 004°48'  
2014-Oct-25 08:26N 43°23' E 004°49'1 0.8
2014-Oct-25 07:33N 43°23' E 004°49'5 4.9
2014-Oct-25 06:33N 43°23' E 004°56'4 4.2
2014-Oct-25 05:33N 43°19' E 004°57'7 7.1
2014-Oct-25 04:33N 43°18' E 004°47'47 6.7
2014-Oct-24 21:33N 43°04' E 003°46'9 7.8
2014-Oct-24 20:23N 42°56' E 003°42'8 7.4
2014-Oct-24 19:22N 42°48' E 003°39'6 7.1
2014-Oct-24 18:31N 42°43' E 003°36'7 7.1
2014-Oct-24 17:28N 42°36' E 003°33'8 7.7
2014-Oct-24 16:29N 42°28' E 003°29'7 7.4
2014-Oct-24 15:30N 42°21' E 003°26'9 7.3
2014-Oct-24 14:19N 42°13' E 003°23'7 7.3
2014-Oct-24 13:21N 42°06' E 003°22'6 7.4
2014-Oct-24 12:33N 42°00' E 003°20'9 7.5
2014-Oct-24 11:18N 41°51' E 003°18'5 6.6
2014-Oct-24 10:29N 41°47' E 003°13'8 7.2
2014-Oct-24 09:20N 41°43' E 003°04'9 7.8
2014-Oct-24 08:09N 41°37' E 002°54'22 0.5
2014-Oct-22 15:27N 41°25' E 002°29'14 7.1
2014-Oct-22 13:27N 41°33' E 002°44'6 6.1
2014-Oct-22 12:33N 41°37' E 002°50'9 6.8
2014-Oct-22 11:10N 41°41' E 003°01'5 7.0
2014-Oct-22 10:30N 41°44' E 003°06'7 7.8
2014-Oct-22 09:33N 41°48' E 003°15'8 7.2
2014-Oct-22 08:25N 41°55' E 003°19'6 7.3
2014-Oct-22 07:33N 42°01' E 003°21'9 8.5
2014-Oct-22 06:26N 42°11' E 003°22'11 8.2
2014-Oct-22 05:08N 42°21' E 003°21'46 6.9
2014-Oct-21 22:25N 43°08' E 003°27'10 7.7
2014-Oct-21 21:04N 43°14' E 003°39'7 8.0
2014-Oct-21 20:11N 43°18' E 003°46'7 8.0
2014-Oct-21 19:19N 43°23' E 003°54'7 7.2
2014-Oct-21 18:23N 43°22' E 004°03'6 7.3
2014-Oct-21 17:34N 43°21' E 004°11'9 6.3
2014-Oct-21 16:07N 43°19' E 004°23'6 6.2
2014-Oct-21 15:11N 43°18' E 004°31'5 6.0
2014-Oct-21 14:26N 43°17' E 004°37'5 6.3
2014-Oct-21 13:33N 43°18' E 004°45'6 6.3
2014-Oct-21 12:33N 43°18' E 004°53'5 5.2
2014-Oct-21 11:33N 43°24' E 004°54'4 4.2
2014-Oct-21 10:33N 43°23' E 004°49'  

Dump ship's entire track history